sensor_id;sensor_type;location;lat;lon;timestamp;pressure;altitude;pressure_sealevel;temperature;humidity
73429;BME280;61643;49.564;17.412;2023-11-21T00:01:24;97455.44;;;5.17;100.00
73429;BME280;61643;49.564;17.412;2023-11-21T00:03:50;97462.22;;;5.25;100.00
73429;BME280;61643;49.564;17.412;2023-11-21T00:06:20;97466.34;;;5.32;100.00
73429;BME280;61643;49.564;17.412;2023-11-21T00:08:46;97454.31;;;5.30;100.00
73429;BME280;61643;49.564;17.412;2023-11-21T00:11:12;97455.03;;;5.25;100.00
73429;BME280;61643;49.564;17.412;2023-11-21T00:13:38;97460.03;;;5.22;100.00
73429;BME280;61643;49.564;17.412;2023-11-21T00:16:05;97460.84;;;5.22;100.00
73429;BME280;61643;49.564;17.412;2023-11-21T00:18:31;97464.22;;;5.18;100.00
73429;BME280;61643;49.564;17.412;2023-11-21T00:20:57;97463.19;;;5.19;100.00
73429;BME280;61643;49.564;17.412;2023-11-21T00:23:24;97464.97;;;5.13;100.00
73429;BME280;61643;49.564;17.412;2023-11-21T00:25:51;97467.72;;;5.18;100.00
73429;BME280;61643;49.564;17.412;2023-11-21T00:28:17;97459.56;;;5.25;100.00
73429;BME280;61643;49.564;17.412;2023-11-21T00:30:43;97459.81;;;5.23;100.00
73429;BME280;61643;49.564;17.412;2023-11-21T00:33:09;97463.44;;;5.17;100.00
73429;BME280;61643;49.564;17.412;2023-11-21T00:35:35;97469.00;;;5.16;100.00
73429;BME280;61643;49.564;17.412;2023-11-21T00:38:01;97464.50;;;5.16;100.00
73429;BME280;61643;49.564;17.412;2023-11-21T00:40:27;97459.81;;;5.23;100.00
73429;BME280;61643;49.564;17.412;2023-11-21T00:42:53;97462.00;;;5.26;100.00
73429;BME280;61643;49.564;17.412;2023-11-21T00:45:19;97460.31;;;5.37;100.00
73429;BME280;61643;49.564;17.412;2023-11-21T00:47:45;97466.53;;;5.42;100.00
73429;BME280;61643;49.564;17.412;2023-11-21T00:50:11;97461.75;;;5.44;100.00
73429;BME280;61643;49.564;17.412;2023-11-21T00:52:37;97471.13;;;5.47;100.00
73429;BME280;61643;49.564;17.412;2023-11-21T00:55:04;97487.47;;;5.51;100.00
73429;BME280;61643;49.564;17.412;2023-11-21T00:57:30;97487.78;;;5.54;100.00
73429;BME280;61643;49.564;17.412;2023-11-21T00:59:56;97477.44;;;5.58;100.00
73429;BME280;61643;49.564;17.412;2023-11-21T01:02:22;97483.09;;;5.61;100.00
73429;BME280;61643;49.564;17.412;2023-11-21T01:04:48;97471.16;;;5.64;100.00
73429;BME280;61643;49.564;17.412;2023-11-21T01:07:14;97476.50;;;5.64;100.00
73429;BME280;61643;49.564;17.412;2023-11-21T01:09:40;97473.19;;;5.57;100.00
73429;BME280;61643;49.564;17.412;2023-11-21T01:12:06;97469.38;;;5.53;100.00
73429;BME280;61643;49.564;17.412;2023-11-21T01:14:32;97475.97;;;5.50;100.00
73429;BME280;61643;49.564;17.412;2023-11-21T01:16:58;97467.19;;;5.50;100.00
73429;BME280;61643;49.564;17.412;2023-11-21T01:19:24;97474.63;;;5.47;100.00
73429;BME280;61643;49.564;17.412;2023-11-21T01:21:50;97472.13;;;5.41;100.00
73429;BME280;61643;49.564;17.412;2023-11-21T01:24:17;97468.06;;;5.38;100.00
73429;BME280;61643;49.564;17.412;2023-11-21T01:26:43;97470.72;;;5.22;100.00
73429;BME280;61643;49.564;17.412;2023-11-21T01:29:11;97470.06;;;5.15;100.00
73429;BME280;61643;49.564;17.412;2023-11-21T01:31:37;97468.31;;;5.20;100.00
73429;BME280;61643;49.564;17.412;2023-11-21T01:34:03;97470.97;;;5.20;100.00
73429;BME280;61643;49.564;17.412;2023-11-21T01:36:32;97463.53;;;5.22;100.00
73429;BME280;61643;49.564;17.412;2023-11-21T01:38:59;97476.69;;;5.29;100.00
73429;BME280;61643;49.564;17.412;2023-11-21T01:41:26;97480.66;;;5.10;100.00
73429;BME280;61643;49.564;17.412;2023-11-21T01:43:52;97477.72;;;5.11;100.00
73429;BME280;61643;49.564;17.412;2023-11-21T01:46:20;97482.41;;;5.04;100.00
73429;BME280;61643;49.564;17.412;2023-11-21T01:48:48;97486.00;;;5.10;100.00
73429;BME280;61643;49.564;17.412;2023-11-21T01:51:14;97488.25;;;5.18;100.00
73429;BME280;61643;49.564;17.412;2023-11-21T01:53:40;97480.50;;;5.16;100.00
73429;BME280;61643;49.564;17.412;2023-11-21T01:56:06;97488.00;;;5.19;100.00
73429;BME280;61643;49.564;17.412;2023-11-21T01:58:35;97489.38;;;5.22;100.00
73429;BME280;61643;49.564;17.412;2023-11-21T02:01:01;97489.06;;;5.18;100.00
73429;BME280;61643;49.564;17.412;2023-11-21T02:03:28;97496.13;;;5.24;100.00
73429;BME280;61643;49.564;17.412;2023-11-21T02:05:54;97486.72;;;5.22;100.00
73429;BME280;61643;49.564;17.412;2023-11-21T02:08:20;97489.97;;;5.24;100.00
73429;BME280;61643;49.564;17.412;2023-11-21T02:10:46;97485.19;;;5.26;100.00
73429;BME280;61643;49.564;17.412;2023-11-21T02:13:13;97494.09;;;5.31;100.00
73429;BME280;61643;49.564;17.412;2023-11-21T02:15:39;97481.81;;;5.30;100.00
73429;BME280;61643;49.564;17.412;2023-11-21T02:18:05;97489.81;;;5.30;100.00
73429;BME280;61643;49.564;17.412;2023-11-21T02:20:32;97489.31;;;5.33;100.00
73429;BME280;61643;49.564;17.412;2023-11-21T02:23:00;97475.88;;;5.28;100.00
73429;BME280;61643;49.564;17.412;2023-11-21T02:25:31;97484.81;;;5.34;100.00
73429;BME280;61643;49.564;17.412;2023-11-21T02:27:59;97471.28;;;5.24;100.00
73429;BME280;61643;49.564;17.412;2023-11-21T02:30:27;97485.34;;;5.36;100.00
73429;BME280;61643;49.564;17.412;2023-11-21T02:33:00;97492.00;;;5.33;100.00
73429;BME280;61643;49.564;17.412;2023-11-21T02:35:26;97485.34;;;5.19;100.00
73429;BME280;61643;49.564;17.412;2023-11-21T02:37:53;97486.16;;;5.20;100.00
73429;BME280;61643;49.564;17.412;2023-11-21T02:40:19;97482.19;;;5.22;100.00
73429;BME280;61643;49.564;17.412;2023-11-21T02:42:50;97486.56;;;5.28;100.00
73429;BME280;61643;49.564;17.412;2023-11-21T02:45:18;97485.03;;;5.32;100.00
73429;BME280;61643;49.564;17.412;2023-11-21T02:47:44;97476.53;;;5.35;100.00
73429;BME280;61643;49.564;17.412;2023-11-21T02:50:11;97486.56;;;5.28;100.00
73429;BME280;61643;49.564;17.412;2023-11-21T02:52:37;97489.00;;;5.30;100.00
73429;BME280;61643;49.564;17.412;2023-11-21T02:55:03;97486.56;;;5.28;100.00
73429;BME280;61643;49.564;17.412;2023-11-21T02:57:29;97491.19;;;5.33;100.00
73429;BME280;61643;49.564;17.412;2023-11-21T02:59:55;97491.59;;;5.41;100.00
73429;BME280;61643;49.564;17.412;2023-11-21T03:02:22;97481.09;;;5.35;100.00
73429;BME280;61643;49.564;17.412;2023-11-21T03:04:48;97490.03;;;5.29;100.00
73429;BME280;61643;49.564;17.412;2023-11-21T03:07:15;97489.88;;;5.19;100.00
73429;BME280;61643;49.564;17.412;2023-11-21T03:09:41;97479.28;;;5.24;100.00
73429;BME280;61643;49.564;17.412;2023-11-21T03:12:09;97480.91;;;5.25;100.00
73429;BME280;61643;49.564;17.412;2023-11-21T03:14:35;97487.53;;;5.22;100.00
73429;BME280;61643;49.564;17.412;2023-11-21T03:17:01;97477.28;;;5.31;100.00
73429;BME280;61643;49.564;17.412;2023-11-21T03:19:30;97482.94;;;5.34;100.00
73429;BME280;61643;49.564;17.412;2023-11-21T03:21:57;97479.84;;;5.26;100.00
73429;BME280;61643;49.564;17.412;2023-11-21T03:24:23;97488.03;;;5.36;100.00
73429;BME280;61643;49.564;17.412;2023-11-21T03:26:49;97481.88;;;5.35;100.00
73429;BME280;61643;49.564;17.412;2023-11-21T03:29:16;97484.16;;;5.43;100.00
73429;BME280;61643;49.564;17.412;2023-11-21T03:31:42;97488.34;;;5.39;100.00
73429;BME280;61643;49.564;17.412;2023-11-21T03:34:19;97488.22;;;5.46;100.00
73429;BME280;61643;49.564;17.412;2023-11-21T03:36:45;97486.16;;;5.36;100.00
73429;BME280;61643;49.564;17.412;2023-11-21T03:39:12;97481.16;;;5.40;100.00
73429;BME280;61643;49.564;17.412;2023-11-21T03:41:38;97473.56;;;5.49;100.00
73429;BME280;61643;49.564;17.412;2023-11-21T03:44:04;97476.88;;;5.39;100.00
73429;BME280;61643;49.564;17.412;2023-11-21T03:46:30;97475.44;;;5.31;100.00
73429;BME280;61643;49.564;17.412;2023-11-21T03:48:56;97478.88;;;5.32;100.00
73429;BME280;61643;49.564;17.412;2023-11-21T03:51:22;97478.88;;;5.32;100.00
73429;BME280;61643;49.564;17.412;2023-11-21T03:53:48;97482.88;;;5.46;100.00
73429;BME280;61643;49.564;17.412;2023-11-21T03:56:14;97482.06;;;5.45;100.00
73429;BME280;61643;49.564;17.412;2023-11-21T03:58:40;97476.09;;;5.38;100.00
73429;BME280;61643;49.564;17.412;2023-11-21T04:01:06;97486.16;;;5.36;100.00
73429;BME280;61643;49.564;17.412;2023-11-21T04:03:32;97489.16;;;5.40;100.00
73429;BME280;61643;49.564;17.412;2023-11-21T04:05:58;97488.13;;;5.41;100.00
73429;BME280;61643;49.564;17.412;2023-11-21T04:08:24;97489.09;;;5.35;100.00
73429;BME280;61643;49.564;17.412;2023-11-21T04:10:51;97489.44;;;5.38;100.00
73429;BME280;61643;49.564;17.412;2023-11-21T04:13:19;97484.16;;;5.43;100.00
73429;BME280;61643;49.564;17.412;2023-11-21T04:15:45;97490.31;;;5.44;100.00
73429;BME280;61643;49.564;17.412;2023-11-21T04:18:11;97484.63;;;5.40;100.00
73429;BME280;61643;49.564;17.412;2023-11-21T04:20:37;97483.81;;;5.40;100.00
73429;BME280;61643;49.564;17.412;2023-11-21T04:23:03;97489.31;;;5.33;100.00
73429;BME280;61643;49.564;17.412;2023-11-21T04:25:29;97490.56;;;5.42;100.00
73429;BME280;61643;49.564;17.412;2023-11-21T04:27:55;97486.09;;;5.48;100.00
73429;BME280;61643;49.564;17.412;2023-11-21T04:30:21;97488.34;;;5.39;100.00
73429;BME280;61643;49.564;17.412;2023-11-21T04:32:47;97499.63;;;5.41;100.00
73429;BME280;61643;49.564;17.412;2023-11-21T04:35:13;97506.56;;;5.42;100.00
73429;BME280;61643;49.564;17.412;2023-11-21T04:37:39;97499.13;;;5.44;100.00
73429;BME280;61643;49.564;17.412;2023-11-21T04:40:07;97500.50;;;5.47;100.00
73429;BME280;61643;49.564;17.412;2023-11-21T04:42:34;97498.47;;;5.54;100.00
73429;BME280;61643;49.564;17.412;2023-11-21T04:45:01;97501.25;;;5.59;100.00
73429;BME280;61643;49.564;17.412;2023-11-21T04:47:30;97498.25;;;5.56;100.00
73429;BME280;61643;49.564;17.412;2023-11-21T04:49:56;97499.63;;;5.58;100.00
73429;BME280;61643;49.564;17.412;2023-11-21T04:52:22;97497.44;;;5.55;100.00
73429;BME280;61643;49.564;17.412;2023-11-21T04:54:49;97500.34;;;5.54;100.00
73429;BME280;61643;49.564;17.412;2023-11-21T04:57:15;97500.59;;;5.52;100.00
73429;BME280;61643;49.564;17.412;2023-11-21T04:59:41;97502.44;;;5.52;100.00
73429;BME280;61643;49.564;17.412;2023-11-21T05:02:07;97501.97;;;5.55;100.00
73429;BME280;61643;49.564;17.412;2023-11-21T05:04:33;97496.06;;;5.53;100.00
73429;BME280;61643;49.564;17.412;2023-11-21T05:06:58;97496.06;;;5.53;100.00
73429;BME280;61643;49.564;17.412;2023-11-21T05:09:26;97499.28;;;5.55;100.00
73429;BME280;61643;49.564;17.412;2023-11-21T05:11:54;97505.91;;;5.69;100.00
73429;BME280;61643;49.564;17.412;2023-11-21T05:14:20;97503.41;;;5.62;100.00
73429;BME280;61643;49.564;17.412;2023-11-21T05:16:46;97497.97;;;5.57;100.00
73429;BME280;61643;49.564;17.412;2023-11-21T05:19:12;97500.66;;;5.57;100.00
73429;BME280;61643;49.564;17.412;2023-11-21T05:21:38;97500.19;;;5.60;100.00
73429;BME280;61643;49.564;17.412;2023-11-21T05:24:05;97498.97;;;5.51;100.00
73429;BME280;61643;49.564;17.412;2023-11-21T05:26:31;97495.09;;;5.59;100.00
73429;BME280;61643;49.564;17.412;2023-11-21T05:28:57;97489.59;;;5.49;100.00
73429;BME280;61643;49.564;17.412;2023-11-21T05:31:23;97495.31;;;5.40;100.00
73429;BME280;61643;49.564;17.412;2023-11-21T05:33:49;97496.28;;;5.51;100.00
73429;BME280;61643;49.564;17.412;2023-11-21T05:36:15;97497.09;;;5.52;100.00
73429;BME280;61643;49.564;17.412;2023-11-21T05:38:41;97495.91;;;5.42;100.00
73429;BME280;61643;49.564;17.412;2023-11-21T05:41:07;97500.91;;;5.56;100.00
73429;BME280;61643;49.564;17.412;2023-11-21T05:43:34;97502.59;;;5.62;100.00
73429;BME280;61643;49.564;17.412;2023-11-21T05:46:01;97509.09;;;5.66;100.00
73429;BME280;61643;49.564;17.412;2023-11-21T05:48:27;97514.59;;;5.59;100.00
73429;BME280;61643;49.564;17.412;2023-11-21T05:50:57;97511.91;;;5.59;100.00
73429;BME280;61643;49.564;17.412;2023-11-21T05:53:34;97517.09;;;5.66;100.00
73429;BME280;61643;49.564;17.412;2023-11-21T05:56:00;97521.63;;;5.65;100.00
73429;BME280;61643;49.564;17.412;2023-11-21T05:58:26;97522.75;;;5.53;100.00
73429;BME280;61643;49.564;17.412;2023-11-21T06:00:52;97521.28;;;5.62;100.00
73429;BME280;61643;49.564;17.412;2023-11-21T06:03:18;97526.72;;;5.67;100.00
73429;BME280;61643;49.564;17.412;2023-11-21T06:05:44;97521.13;;;5.68;100.00
73429;BME280;61643;49.564;17.412;2023-11-21T06:08:10;97523.63;;;5.58;100.00
73429;BME280;61643;49.564;17.412;2023-11-21T06:10:36;97529.41;;;5.67;100.00
73429;BME280;61643;49.564;17.412;2023-11-21T06:13:02;97524.53;;;5.64;100.00
73429;BME280;61643;49.564;17.412;2023-11-21T06:15:29;97515.94;;;5.45;100.00
73429;BME280;61643;49.564;17.412;2023-11-21T06:17:55;97524.38;;;5.25;100.00
73429;BME280;61643;49.564;17.412;2023-11-21T06:20:22;97517.53;;;5.29;100.00
73429;BME280;61643;49.564;17.412;2023-11-21T06:22:49;97519.97;;;5.31;100.00
73429;BME280;61643;49.564;17.412;2023-11-21T06:25:16;97517.03;;;5.16;100.00
73429;BME280;61643;49.564;17.412;2023-11-21T06:27:44;97530.06;;;5.29;100.00
73429;BME280;61643;49.564;17.412;2023-11-21T06:30:11;97540.22;;;5.15;100.00
73429;BME280;61643;49.564;17.412;2023-11-21T06:32:39;97544.25;;;5.18;100.00
73429;BME280;61643;49.564;17.412;2023-11-21T06:35:06;97556.06;;;5.22;100.00
73429;BME280;61643;49.564;17.412;2023-11-21T06:37:33;97552.75;;;5.15;100.00
73429;BME280;61643;49.564;17.412;2023-11-21T06:40:00;97552.22;;;5.29;100.00
73429;BME280;61643;49.564;17.412;2023-11-21T06:42:26;97546.97;;;5.34;100.00
73429;BME280;61643;49.564;17.412;2023-11-21T06:44:52;97545.63;;;5.49;100.00
73429;BME280;61643;49.564;17.412;2023-11-21T06:47:20;97545.09;;;5.63;100.00
73429;BME280;61643;49.564;17.412;2023-11-21T06:49:46;97552.94;;;5.70;100.00
73429;BME280;61643;49.564;17.412;2023-11-21T06:52:15;97554.06;;;5.74;100.00
73429;BME280;61643;49.564;17.412;2023-11-21T06:54:41;97557.22;;;5.71;100.00
73429;BME280;61643;49.564;17.412;2023-11-21T06:57:07;97557.41;;;5.81;100.00
73429;BME280;61643;49.564;17.412;2023-11-21T06:59:34;97560.63;;;5.83;100.00
73429;BME280;61643;49.564;17.412;2023-11-21T07:02:00;97558.63;;;5.90;100.00
73429;BME280;61643;49.564;17.412;2023-11-21T07:04:26;97560.38;;;5.84;100.00
73429;BME280;61643;49.564;17.412;2023-11-21T07:06:53;97563.41;;;5.88;100.00
73429;BME280;61643;49.564;17.412;2023-11-21T07:09:20;97561.06;;;5.91;100.00
73429;BME280;61643;49.564;17.412;2023-11-21T07:11:53;97563.03;;;5.96;100.00
73429;BME280;61643;49.564;17.412;2023-11-21T07:14:20;97566.97;;;5.93;100.00
73429;BME280;61643;49.564;17.412;2023-11-21T07:16:46;97555.75;;;5.80;100.00
73429;BME280;61643;49.564;17.412;2023-11-21T07:19:12;97567.44;;;5.90;100.00
73429;BME280;61643;49.564;17.412;2023-11-21T07:21:39;97561.47;;;6.00;100.00
73429;BME280;61643;49.564;17.412;2023-11-21T07:24:06;97562.19;;;5.96;100.00
73429;BME280;61643;49.564;17.412;2023-11-21T07:26:33;97571.59;;;5.98;100.00
73429;BME280;61643;49.564;17.412;2023-11-21T07:29:01;97570.88;;;6.03;100.00
73429;BME280;61643;49.564;17.412;2023-11-21T07:31:27;97572.31;;;6.10;100.00
73429;BME280;61643;49.564;17.412;2023-11-21T07:33:53;97576.03;;;6.09;100.00
73429;BME280;61643;49.564;17.412;2023-11-21T07:36:19;97573.47;;;6.14;100.00
73429;BME280;61643;49.564;17.412;2023-11-21T07:38:47;97570.53;;;5.99;100.00
73429;BME280;61643;49.564;17.412;2023-11-21T07:41:13;97577.91;;;6.09;100.00
73429;BME280;61643;49.564;17.412;2023-11-21T07:43:42;97580.41;;;6.15;100.00
73429;BME280;61643;49.564;17.412;2023-11-21T07:46:08;97582.59;;;6.18;100.00
73429;BME280;61643;49.564;17.412;2023-11-21T07:48:34;97587.13;;;6.01;100.00
73429;BME280;61643;49.564;17.412;2023-11-21T07:51:02;97584.31;;;6.08;100.00
73429;BME280;61643;49.564;17.412;2023-11-21T07:53:31;97585.03;;;6.03;100.00
73429;BME280;61643;49.564;17.412;2023-11-21T07:55:58;97585.34;;;6.07;100.00
73429;BME280;61643;49.564;17.412;2023-11-21T07:58:28;97588.34;;;6.10;100.00
73429;BME280;61643;49.564;17.412;2023-11-21T08:00:54;97590.31;;;6.15;100.00
73429;BME280;61643;49.564;17.412;2023-11-21T08:03:20;97596.28;;;6.22;100.00
73429;BME280;61643;49.564;17.412;2023-11-21T08:05:47;97598.84;;;6.33;100.00
73429;BME280;61643;49.564;17.412;2023-11-21T08:08:13;97598.84;;;6.33;100.00
73429;BME280;61643;49.564;17.412;2023-11-21T08:10:39;97610.03;;;6.30;100.00
73429;BME280;61643;49.564;17.412;2023-11-21T08:13:05;97605.72;;;6.29;100.00
73429;BME280;61643;49.564;17.412;2023-11-21T08:15:32;97610.75;;;6.26;100.00
73429;BME280;61643;49.564;17.412;2023-11-21T08:17:58;97608.09;;;6.26;100.00
73429;BME280;61643;49.564;17.412;2023-11-21T08:20:27;97610.19;;;6.24;100.00
73429;BME280;61643;49.564;17.412;2023-11-21T08:22:54;97609.22;;;6.30;100.00
73429;BME280;61643;49.564;17.412;2023-11-21T08:25:22;97614.88;;;6.33;100.00
73429;BME280;61643;49.564;17.412;2023-11-21T08:27:48;97614.31;;;6.31;100.00
73429;BME280;61643;49.564;17.412;2023-11-21T08:30:15;97616.09;;;6.42;100.00
73429;BME280;61643;49.564;17.412;2023-11-21T08:32:42;97618.50;;;6.44;100.00
73429;BME280;61643;49.564;17.412;2023-11-21T08:35:08;97613.97;;;6.44;100.00
73429;BME280;61643;49.564;17.412;2023-11-21T08:37:35;97615.69;;;6.34;100.00
73429;BME280;61643;49.564;17.412;2023-11-21T08:40:05;97609.72;;;6.27;100.00
73429;BME280;61643;49.564;17.412;2023-11-21T08:42:35;97610.03;;;6.30;100.00
73429;BME280;61643;49.564;17.412;2023-11-21T08:45:01;97613.84;;;6.34;100.00
73429;BME280;61643;49.564;17.412;2023-11-21T08:47:27;97612.69;;;6.30;100.00
73429;BME280;61643;49.564;17.412;2023-11-21T08:49:53;97608.91;;;6.26;100.00
73429;BME280;61643;49.564;17.412;2023-11-21T08:52:19;97607.13;;;6.32;100.00
73429;BME280;61643;49.564;17.412;2023-11-21T08:54:52;97619.75;;;6.36;100.00
73429;BME280;61643;49.564;17.412;2023-11-21T08:57:22;97617.56;;;6.33;100.00
73429;BME280;61643;49.564;17.412;2023-11-21T08:59:48;97627.19;;;6.34;100.00
73429;BME280;61643;49.564;17.412;2023-11-21T09:02:14;97630.47;;;6.36;100.00
73429;BME280;61643;49.564;17.412;2023-11-21T09:04:40;97626.22;;;6.40;100.00
73429;BME280;61643;49.564;17.412;2023-11-21T09:07:07;97624.19;;;6.48;100.00
73429;BME280;61643;49.564;17.412;2023-11-21T09:09:33;97622.81;;;6.45;100.00
73429;BME280;61643;49.564;17.412;2023-11-21T09:11:59;97631.25;;;6.37;100.00
73429;BME280;61643;49.564;17.412;2023-11-21T09:14:27;97628.97;;;6.46;100.00
73429;BME280;61643;49.564;17.412;2023-11-21T09:16:53;97622.81;;;6.45;100.00
73429;BME280;61643;49.564;17.412;2023-11-21T09:19:19;97620.47;;;6.49;100.00
73429;BME280;61643;49.564;17.412;2023-11-21T09:21:45;97620.97;;;6.29;100.00
73429;BME280;61643;49.564;17.412;2023-11-21T09:24:11;97627.19;;;6.34;100.00
73429;BME280;61643;49.564;17.412;2023-11-21T09:26:37;97633.84;;;6.49;100.00
73429;BME280;61643;49.564;17.412;2023-11-21T09:29:03;97634.81;;;6.42;100.00
73429;BME280;61643;49.564;17.412;2023-11-21T09:31:29;97628.97;;;6.46;100.00
73429;BME280;61643;49.564;17.412;2023-11-21T09:33:56;97622.66;;;6.52;100.00
73429;BME280;61643;49.564;17.412;2023-11-21T09:36:23;97626.94;;;6.53;100.00
73429;BME280;61643;49.564;17.412;2023-11-21T09:38:52;97625.75;;;6.43;100.00
73429;BME280;61643;49.564;17.412;2023-11-21T09:42:08;97628.88;;;6.40;100.00
73429;BME280;61643;49.564;17.412;2023-11-21T09:44:08;97629.31;;;6.49;100.00
73429;BME280;61643;49.564;17.412;2023-11-21T09:46:37;97638.69;;;6.35;100.00
73429;BME280;61643;49.564;17.412;2023-11-21T09:49:08;97647.13;;;6.43;100.00
73429;BME280;61643;49.564;17.412;2023-11-21T09:51:40;97644.53;;;6.49;100.00
73429;BME280;61643;49.564;17.412;2023-11-21T09:54:10;97635.47;;;6.50;100.00
73429;BME280;61643;49.564;17.412;2023-11-21T09:56:37;97631.25;;;6.37;100.00
73429;BME280;61643;49.564;17.412;2023-11-21T09:59:05;97631.66;;;6.46;100.00
73429;BME280;61643;49.564;17.412;2023-11-21T10:01:36;97635.69;;;6.48;100.00
73429;BME280;61643;49.564;17.412;2023-11-21T10:04:02;97628.16;;;6.45;100.00
73429;BME280;61643;49.564;17.412;2023-11-21T10:06:28;97639.19;;;6.49;100.00
73429;BME280;61643;49.564;17.412;2023-11-21T10:08:55;97633.50;;;6.45;100.00
73429;BME280;61643;49.564;17.412;2023-11-21T10:11:25;97633.00;;;6.48;100.00
73429;BME280;61643;49.564;17.412;2023-11-21T10:13:54;97633.19;;;6.41;100.00
73429;BME280;61643;49.564;17.412;2023-11-21T10:16:25;97632.38;;;6.41;100.00
73429;BME280;61643;49.564;17.412;2023-11-21T10:18:55;97630.28;;;6.43;100.00
73429;BME280;61643;49.564;17.412;2023-11-21T10:21:22;97626.81;;;6.42;100.00
73429;BME280;61643;49.564;17.412;2023-11-21T10:23:48;97624.19;;;6.48;100.00
73429;BME280;61643;49.564;17.412;2023-11-21T10:26:14;97625.81;;;6.49;100.00
73429;BME280;61643;49.564;17.412;2023-11-21T10:29:05;97624.69;;;6.44;100.00
73429;BME280;61643;49.564;17.412;2023-11-21T10:31:32;97631.31;;;6.59;100.00
73429;BME280;61643;49.564;17.412;2023-11-21T10:34:17;97627.16;;;6.68;100.00
73429;BME280;61643;49.564;17.412;2023-11-21T10:36:44;97623.75;;;6.72;100.00
73429;BME280;61643;49.564;17.412;2023-11-21T10:39:16;97631.72;;;6.67;100.00
73429;BME280;61643;49.564;17.412;2023-11-21T10:41:44;97629.84;;;6.68;100.00
73429;BME280;61643;49.564;17.412;2023-11-21T10:44:17;97636.56;;;6.70;100.00
73429;BME280;61643;49.564;17.412;2023-11-21T10:46:50;97634.50;;;6.77;100.00
73429;BME280;61643;49.564;17.412;2023-11-21T10:49:18;97639.00;;;6.72;100.00
73429;BME280;61643;49.564;17.412;2023-11-21T10:51:44;97632.66;;;6.78;100.00
73429;BME280;61643;49.564;17.412;2023-11-21T10:54:10;97637.31;;;6.87;100.00
73429;BME280;61643;49.564;17.412;2023-11-21T10:56:39;97627.72;;;6.70;100.00
73429;BME280;61643;49.564;17.412;2023-11-21T10:59:10;97626.00;;;6.80;100.00
73429;BME280;61643;49.564;17.412;2023-11-21T11:01:44;97631.97;;;6.87;100.00
73429;BME280;61643;49.564;17.412;2023-11-21T11:04:14;97631.28;;;6.75;100.00
73429;BME280;61643;49.564;17.412;2023-11-21T11:06:43;97633.34;;;6.68;100.00
73429;BME280;61643;49.564;17.412;2023-11-21T11:09:13;97631.59;;;6.79;100.00
73429;BME280;61643;49.564;17.412;2023-11-21T11:11:42;97619.53;;;6.76;100.00
73429;BME280;61643;49.564;17.412;2023-11-21T11:14:13;97618.88;;;6.86;100.00
73429;BME280;61643;49.564;17.412;2023-11-21T11:16:40;97623.09;;;6.82;100.00
73429;BME280;61643;49.564;17.412;2023-11-21T11:19:08;97615.91;;;6.87;100.00
73429;BME280;61643;49.564;17.412;2023-11-21T11:27:29;97627.72;;;7.08;100.00
73429;BME280;61643;49.564;17.412;2023-11-21T11:30:50;97619.22;;;7.16;100.00
73429;BME280;61643;49.564;17.412;2023-11-21T11:38:32;97615.78;;;7.16;100.00
73429;BME280;61643;49.564;17.412;2023-11-21T11:41:02;97615.47;;;7.12;100.00
73429;BME280;61643;49.564;17.412;2023-11-21T11:43:29;97614.06;;;7.10;100.00
73429;BME280;61643;49.564;17.412;2023-11-21T11:45:59;97612.22;;;7.10;100.00
73429;BME280;61643;49.564;17.412;2023-11-21T11:48:25;97609.50;;;7.05;100.00
73429;BME280;61643;49.564;17.412;2023-11-21T11:51:02;97609.72;;;7.04;100.00
73429;BME280;61643;49.564;17.412;2023-11-21T11:53:35;97611.16;;;7.11;100.00
73429;BME280;61643;49.564;17.412;2023-11-21T11:56:33;97610.66;;;7.14;100.00
73429;BME280;61643;49.564;17.412;2023-11-21T11:59:03;97612.78;;;7.12;100.00
73429;BME280;61643;49.564;17.412;2023-11-21T12:01:30;97607.88;;;7.04;100.00
73429;BME280;61643;49.564;17.412;2023-11-21T12:07:02;97606.34;;;7.13;100.00
73429;BME280;61643;49.564;17.412;2023-11-21T12:09:30;97601.63;;;6.99;100.00
73429;BME280;61643;49.564;17.412;2023-11-21T12:11:57;97607.97;;;6.92;100.00
73429;BME280;61643;49.564;17.412;2023-11-21T12:14:23;97611.19;;;6.94;100.00
73429;BME280;61643;49.564;17.412;2023-11-21T12:16:49;97599.53;;;7.01;100.00
73429;BME280;61643;49.564;17.412;2023-11-21T12:19:15;97613.53;;;7.08;100.00
73429;BME280;61643;49.564;17.412;2023-11-21T12:21:41;97604.88;;;7.01;100.00
73429;BME280;61643;49.564;17.412;2023-11-21T12:24:08;97607.13;;;7.09;100.00
73429;BME280;61643;49.564;17.412;2023-11-21T12:26:43;97602.41;;;7.16;100.00
73429;BME280;61643;49.564;17.412;2023-11-21T12:29:10;97608.91;;;7.25;100.00
73429;BME280;61643;49.564;17.412;2023-11-21T12:31:36;97606.63;;;7.12;100.00
73429;BME280;61643;49.564;17.412;2023-11-21T12:34:02;97607.97;;;7.14;100.00
73429;BME280;61643;49.564;17.412;2023-11-21T12:36:29;97601.94;;;7.24;100.00
73429;BME280;61643;49.564;17.412;2023-11-21T12:38:56;97619.94;;;7.28;100.00
73429;BME280;61643;49.564;17.412;2023-11-21T12:41:22;97616.75;;;7.31;100.00
73429;BME280;61643;49.564;17.412;2023-11-21T12:43:48;97615.19;;;7.35;100.00
73429;BME280;61643;49.564;17.412;2023-11-21T12:46:14;97608.28;;;7.39;100.00
73429;BME280;61643;49.564;17.412;2023-11-21T12:48:41;97606.50;;;7.50;100.00
73429;BME280;61643;49.564;17.412;2023-11-21T12:51:11;97612.19;;;7.54;100.00
73429;BME280;61643;49.564;17.412;2023-11-21T12:53:38;97619.19;;;7.60;100.00
73429;BME280;61643;49.564;17.412;2023-11-21T12:56:10;97619.34;;;7.75;100.00
73429;BME280;61643;49.564;17.412;2023-11-21T12:58:37;97616.44;;;7.76;100.00
73429;BME280;61643;49.564;17.412;2023-11-21T13:01:06;97614.34;;;7.83;100.00
73429;BME280;61643;49.564;17.412;2023-11-21T13:03:37;97617.63;;;7.90;100.00
73429;BME280;61643;49.564;17.412;2023-11-21T13:06:04;97627.53;;;7.90;100.00